Time;durP1;ratioP1;P1;durP2;ratioP2;P2;SDS_P1;SDS_P2;PMS_P1;PMS_P2;Temp;Humidity;BMP_temperature;BMP_pressure;BME280_temperature;BME280_humidity;BME280_pressure;Samples;Min_cycle;Max_cycle;Signal;HPM_P1;HPM_P2
2023/06/09 00:01:35;;;;;;;0.10;0.10;;;13.60;99.90;;;;;;5070812;28;20036;-81
2023/06/09 00:04:06;;;;;;;0.20;0.20;;;13.70;99.90;;;;;;5070872;28;20016;-86
2023/06/09 00:06:33;;;;;;;0.10;0.10;;;13.70;99.90;;;;;;5065305;28;20666;-85
2023/06/09 00:08:59;;;;;;;0.10;0.10;;;13.70;99.90;;;;;;5032824;28;20037;-87
2023/06/09 00:11:26;;;;;;;1.17;1.08;;;13.70;99.90;;;;;;5046691;28;20104;-88
2023/06/09 00:13:52;;;;;;;0.10;0.10;;;13.70;99.90;;;;;;5062830;28;20024;-83
2023/06/09 00:16:18;;;;;;;0.10;0.10;;;13.70;99.90;;;;;;5029360;28;20033;-87
2023/06/09 00:18:45;;;;;;;0.10;0.10;;;13.70;99.90;;;;;;5062871;28;20019;-84
2023/06/09 00:21:15;;;;;;;0.10;0.10;;;13.70;99.90;;;;;;5061120;28;20533;-83
2023/06/09 00:23:44;;;;;;;0.20;0.20;;;13.70;99.90;;;;;;5061052;28;20078;-75
2023/06/09 00:26:10;;;;;;;0.20;0.20;;;13.70;99.90;;;;;;5060047;28;20729;-82
2023/06/09 00:28:36;;;;;;;0.10;0.10;;;13.80;99.90;;;;;;5043734;28;20043;-88
2023/06/09 00:31:02;;;;;;;0.30;0.30;;;13.70;99.90;;;;;;5061685;28;20096;-76
2023/06/09 00:33:28;;;;;;;0.15;0.15;;;13.70;99.90;;;;;;5060978;28;20029;-91
2023/06/09 00:35:54;;;;;;;0.20;0.20;;;13.70;99.90;;;;;;5061759;28;20012;-82
2023/06/09 00:38:20;;;;;;;0.20;0.20;;;13.70;99.90;;;;;;5062608;28;20508;-91
2023/06/09 00:40:46;;;;;;;0.32;0.32;;;13.70;99.90;;;;;;5062299;28;20014;-78
2023/06/09 00:43:13;;;;;;;0.20;0.20;;;;;;;;;;5060975;28;20100;-83
2023/06/09 00:45:38;;;;;;;0.40;0.40;;;13.80;99.90;;;;;;5059240;28;20471;-80
2023/06/09 00:48:04;;;;;;;0.20;0.20;;;15.00;99.90;;;;;;5059209;28;20028;-86
2023/06/09 00:50:31;;;;;;;0.10;0.10;;;16.00;99.90;;;;;;5059057;28;20013;-87
2023/06/09 00:52:59;;;;;;;0.10;0.10;;;16.90;99.90;;;;;;5058835;28;20046;-86
2023/06/09 00:55:26;;;;;;;0.40;0.40;;;17.40;99.90;;;;;;5039964;28;20067;-83
2023/06/09 00:57:55;;;;;;;0.10;0.10;;;17.90;99.90;;;;;;5058487;28;20362;-75
2023/06/09 01:00:28;;;;;;;0.10;0.10;;;18.20;99.90;;;;;;5058180;28;20029;-84
2023/06/09 01:03:02;;;;;;;0.10;0.10;;;18.50;99.90;;;;;;5058898;28;20021;-75
2023/06/09 01:05:39;;;;;;;0.40;0.40;;;18.60;99.90;;;;;;5058178;28;20031;-83
2023/06/09 01:08:11;;;;;;;0.10;0.10;;;18.70;99.90;;;;;;5058719;28;20039;-78
2023/06/09 01:11:00;;;;;;;0.10;0.10;;;18.90;99.90;;;;;;5059328;28;20031;-79
2023/06/09 01:13:26;;;;;;;0.20;0.20;;;19.10;99.90;;;;;;5040563;28;20189;-74
2023/06/09 01:15:57;;;;;;;0.10;0.10;;;19.00;99.90;;;;;;5060623;28;20102;-78
2023/06/09 01:18:25;;;;;;;0.20;0.20;;;20.30;99.90;;;;;;5042224;28;20025;-83
2023/06/09 01:21:12;;;;;;;0.20;0.20;;;18.70;99.90;;;;;;5058838;28;20675;-83
2023/06/09 01:24:09;;;;;;;0.10;0.10;;;17.80;99.90;;;;;;5062186;28;20094;-81
2023/06/09 01:26:38;;;;;;;0.10;0.10;;;17.10;99.90;;;;;;5062911;28;20013;-75
2023/06/09 01:29:05;;;;;;;0.10;0.10;;;17.50;99.90;;;;;;5062796;28;20078;-84
2023/06/09 01:31:33;;;;;;;0.10;0.10;;;17.70;99.90;;;;;;5062010;28;20309;-85
2023/06/09 01:34:00;;;;;;;0.20;0.20;;;17.60;99.90;;;;;;5062358;28;20087;-79
2023/06/09 01:36:26;;;;;;;0.20;0.20;;;18.10;99.90;;;;;;5062315;28;20070;-77
2023/06/09 01:38:52;;;;;;;0.10;0.10;;;18.20;99.90;;;;;;5062677;28;20112;-82
2023/06/09 01:41:18;;;;;;;0.10;0.10;;;18.10;99.90;;;;;;5062490;28;20095;-84
2023/06/09 01:43:44;;;;;;;0.20;0.20;;;17.60;99.90;;;;;;5062125;28;20548;-79
2023/06/09 01:46:09;;;;;;;0.10;0.10;;;17.10;99.90;;;;;;5062221;28;20082;-84
2023/06/09 01:49:02;;;;;;;0.10;0.10;;;17.00;99.90;;;;;;5062370;28;20028;-85
2023/06/09 01:51:46;;;;;;;0.20;0.20;;;16.80;99.90;;;;;;5043272;28;20024;-75
2023/06/09 01:54:16;;;;;;;1.38;1.33;;;16.70;99.90;;;;;;5043080;28;20143;-77
2023/06/09 01:56:50;;;;;;;0.20;0.20;;;17.20;99.90;;;;;;5061797;28;20021;-82
2023/06/09 01:59:23;;;;;;;0.10;0.10;;;16.90;99.90;;;;;;5061388;28;20043;-79
2023/06/09 02:01:52;;;;;;;0.10;0.10;;;16.50;99.90;;;;;;5061434;28;20047;-73
2023/06/09 02:04:21;;;;;;;0.10;0.10;;;17.20;99.90;;;;;;5061300;28;20023;-72
2023/06/09 02:06:47;;;;;;;0.10;0.10;;;17.20;99.90;;;;;;5062519;28;20102;-80
2023/06/09 02:09:14;;;;;;;0.17;0.17;;;17.70;99.90;;;;;;5063006;28;20035;-88
2023/06/09 02:11:40;;;;;;;0.10;0.10;;;17.40;99.90;;;;;;5061402;28;20502;-75
2023/06/09 02:14:06;;;;;;;0.20;0.20;;;16.80;99.90;;;;;;5062025;28;20642;-76
2023/06/09 02:16:32;;;;;;;0.10;0.10;;;16.80;99.90;;;;;;5062262;28;20044;-80
2023/06/09 02:18:57;;;;;;;0.13;0.13;;;16.70;99.90;;;;;;5043194;28;20067;-75
2023/06/09 02:21:23;;;;;;;0.10;0.10;;;17.20;99.90;;;;;;5044076;28;20060;-82
2023/06/09 02:23:49;;;;;;;0.10;0.10;;;17.60;99.90;;;;;;5062025;28;20024;-87
2023/06/09 02:26:15;;;;;;;0.10;0.10;;;17.60;99.90;;;;;;5061062;28;20048;-88
2023/06/09 02:28:41;;;;;;;0.10;0.10;;;17.00;99.90;;;;;;5061451;28;20657;-87
2023/06/09 02:31:07;;;;;;;0.20;0.20;;;16.90;99.90;;;;;;5061207;28;20735;-87
2023/06/09 02:33:33;;;;;;;0.17;0.17;;;16.90;99.90;;;;;;5061806;28;20048;-87
2023/06/09 02:35:59;;;;;;;0.10;0.10;;;17.10;99.90;;;;;;5061194;28;20602;-85
2023/06/09 02:38:26;;;;;;;0.10;0.10;;;16.30;99.90;;;;;;5060851;28;20020;-83
2023/06/09 02:40:52;;;;;;;0.20;0.20;;;16.30;99.90;;;;;;5043176;28;20035;-88
2023/06/09 02:43:17;;;;;;;0.20;0.20;;;15.80;99.90;;;;;;5061455;28;20012;-83
2023/06/09 02:45:43;;;;;;;0.28;0.28;;;15.90;99.90;;;;;;5061071;28;20691;-78
2023/06/09 02:48:09;;;;;;;0.20;0.20;;;15.70;99.90;;;;;;5060344;28;20063;-81
2023/06/09 02:50:36;;;;;;;0.10;0.10;;;16.00;99.90;;;;;;5060701;28;20041;-81
2023/06/09 02:53:02;;;;;;;0.20;0.20;;;16.00;99.90;;;;;;5060240;28;20642;-80
2023/06/09 02:55:28;;;;;;;0.20;0.20;;;15.30;99.90;;;;;;5059559;28;20123;-84
2023/06/09 02:57:54;;;;;;;0.75;0.75;;;14.90;99.90;;;;;;5060164;28;20078;-74
2023/06/09 03:00:20;;;;;;;0.20;0.20;;;15.20;99.90;;;;;;5060556;28;20052;-84
2023/06/09 03:02:46;;;;;;;0.20;0.20;;;15.40;99.90;;;;;;5060545;28;20075;-85
2023/06/09 03:05:12;;;;;;;0.15;0.15;;;16.50;99.90;;;;;;5060390;28;20317;-73
2023/06/09 03:07:38;;;;;;;0.13;0.13;;;16.30;99.90;;;;;;5059454;28;20643;-82
2023/06/09 03:10:06;;;;;;;0.20;0.20;;;16.80;99.90;;;;;;5060024;28;20032;-81
2023/06/09 03:12:32;;;;;;;0.13;0.13;;;17.20;99.90;;;;;;5059888;28;20028;-77
2023/06/09 03:14:58;;;;;;;0.20;0.20;;;17.40;99.90;;;;;;5059972;28;20031;-82
2023/06/09 03:17:25;;;;;;;0.20;0.20;;;15.40;99.90;;;;;;5058918;28;20107;-76
2023/06/09 03:19:51;;;;;;;1.10;1.10;;;17.90;99.90;;;;;;5059393;28;20267;-78
2023/06/09 03:22:17;;;;;;;0.10;0.10;;;18.10;99.90;;;;;;5058735;28;20021;-80
2023/06/09 03:24:44;;;;;;;0.10;0.10;;;18.20;99.90;;;;;;5058645;28;20395;-77
2023/06/09 03:27:10;;;;;;;0.15;0.15;;;18.40;99.90;;;;;;5058826;28;20485;-80
2023/06/09 03:29:36;;;;;;;0.10;0.10;;;18.70;99.90;;;;;;5058751;28;20021;-82
2023/06/09 03:32:02;;;;;;;0.10;0.10;;;18.70;99.90;;;;;;5059165;28;20127;-79
2023/06/09 03:34:29;;;;;;;0.10;0.10;;;18.80;99.90;;;;;;5059218;28;20302;-80
2023/06/09 03:36:55;;;;;;;0.20;0.20;;;18.50;99.90;;;;;;5058461;28;20306;-77
2023/06/09 03:39:21;;;;;;;0.15;0.15;;;18.40;99.90;;;;;;5058938;28;20116;-80
2023/06/09 03:41:47;;;;;;;3.28;3.10;;;18.50;99.90;;;;;;5059188;28;20029;-76
2023/06/09 03:44:12;;;;;;;1.60;1.50;;;18.50;99.90;;;;;;5059174;28;20561;-76
2023/06/09 03:46:38;;;;;;;0.10;0.10;;;18.60;99.90;;;;;;5061374;28;20494;-82
2023/06/09 03:49:04;;;;;;;0.10;0.10;;;18.60;99.90;;;;;;5062891;28;20672;-81
2023/06/09 03:51:30;;;;;;;0.10;0.10;;;17.20;99.90;;;;;;5060517;28;20063;-81
2023/06/09 03:53:56;;;;;;;0.10;0.10;;;18.70;99.90;;;;;;5061382;28;20041;-84
2023/06/09 03:56:21;;;;;;;0.10;0.10;;;18.70;99.90;;;;;;5058901;28;20568;-77
2023/06/09 03:58:48;;;;;;;0.25;0.25;;;18.70;99.90;;;;;;5058452;28;20727;-76
2023/06/09 04:01:17;;;;;;;0.20;0.20;;;18.60;99.90;;;;;;5058728;28;20247;-81
2023/06/09 04:03:43;;;;;;;0.52;0.52;;;18.80;99.90;;;;;;5060342;28;20203;-79
2023/06/09 04:06:09;;;;;;;0.20;0.20;;;18.70;99.90;;;;;;5060622;28;20408;-82
2023/06/09 04:08:34;;;;;;;0.38;0.38;;;18.70;99.90;;;;;;5060880;28;20037;-81
2023/06/09 04:11:00;;;;;;;0.60;0.60;;;18.90;99.90;;;;;;5058691;28;20109;-81
2023/06/09 04:13:26;;;;;;;0.25;0.25;;;18.90;99.90;;;;;;5058650;28;20340;-84
2023/06/09 04:15:52;;;;;;;0.10;0.10;;;18.80;99.90;;;;;;5058414;28;20438;-82
2023/06/09 04:18:19;;;;;;;0.13;0.13;;;18.80;99.90;;;;;;5058406;28;20024;-85
2023/06/09 04:20:44;;;;;;;0.10;0.10;;;18.90;99.90;;;;;;5058098;28;20013;-80
2023/06/09 04:23:10;;;;;;;0.20;0.20;;;18.90;99.90;;;;;;5058314;28;20051;-84
2023/06/09 04:25:36;;;;;;;0.10;0.10;;;18.90;99.90;;;;;;5058551;28;20031;-82
2023/06/09 04:28:03;;;;;;;0.20;0.20;;;19.00;99.90;;;;;;5057991;28;20385;-84
2023/06/09 04:30:30;;;;;;;0.10;0.10;;;19.10;99.90;;;;;;5058060;28;20078;-84
2023/06/09 04:33:01;;;;;;;0.10;0.10;;;18.40;99.90;;;;;;5058197;28;20539;-79
2023/06/09 04:35:27;;;;;;;0.10;0.10;;;19.20;99.90;;;;;;5057902;28;20031;-86
2023/06/09 04:37:53;;;;;;;0.10;0.10;;;19.30;99.90;;;;;;5058261;28;20032;-76
2023/06/09 04:40:23;;;;;;;0.20;0.20;;;19.50;99.90;;;;;;5057451;28;20201;-81
2023/06/09 04:42:56;;;;;;;0.10;0.10;;;19.50;99.90;;;;;;5058006;28;20028;-84
2023/06/09 04:45:33;;;;;;;0.20;0.20;;;19.30;99.90;;;;;;5039603;28;20629;-78
2023/06/09 04:48:02;;;;;;;0.10;0.10;;;19.30;99.90;;;;;;5057640;28;20052;-82
2023/06/09 04:50:30;;;;;;;0.20;0.20;;;19.00;99.90;;;;;;5057706;28;20338;-77
2023/06/09 04:52:59;;;;;;;0.10;0.10;;;19.00;99.90;;;;;;5057480;28;20035;-82
2023/06/09 04:55:26;;;;;;;0.10;0.10;;;19.20;99.90;;;;;;5057402;28;20586;-79
2023/06/09 04:57:56;;;;;;;0.10;0.10;;;19.40;99.90;;;;;;5057498;28;20040;-76
2023/06/09 05:00:29;;;;;;;0.20;0.20;;;19.50;99.90;;;;;;5057854;28;20169;-80
2023/06/09 05:02:57;;;;;;;0.10;0.10;;;19.50;99.90;;;;;;5057959;28;20033;-78
2023/06/09 05:05:25;;;;;;;0.20;0.20;;;19.60;99.90;;;;;;5057577;28;20070;-78
2023/06/09 05:07:51;;;;;;;0.10;0.10;;;19.70;99.90;;;;;;5039706;28;20105;-84
2023/06/09 05:10:17;;;;;;;0.32;0.32;;;19.80;99.90;;;;;;5057657;28;20467;-80
2023/06/09 05:12:43;;;;;;;0.10;0.10;;;19.60;99.90;;;;;;5057416;28;20298;-79
2023/06/09 05:15:09;;;;;;;0.20;0.20;;;19.70;99.90;;;;;;5058288;28;20025;-79
2023/06/09 05:17:41;;;;;;;0.20;0.20;;;19.80;99.90;;;;;;5057859;28;20047;-80
2023/06/09 05:20:10;;;;;;;4.88;4.57;;;19.40;99.90;;;;;;5058306;28;20097;-84
2023/06/09 05:22:36;;;;;;;0.30;0.30;;;19.60;99.90;;;;;;5057085;28;20055;-81
2023/06/09 05:25:08;;;;;;;0.10;0.10;;;19.70;99.90;;;;;;5057553;28;20032;-80
2023/06/09 05:27:33;;;;;;;0.15;0.15;;;19.80;99.90;;;;;;5057156;28;20089;-82
2023/06/09 05:29:59;;;;;;;0.10;0.10;;;19.70;99.90;;;;;;5057885;28;20547;-84
2023/06/09 05:32:25;;;;;;;0.90;0.90;;;19.90;99.90;;;;;;5057417;28;20043;-85
2023/06/09 05:34:52;;;;;;;0.63;0.63;;;20.00;99.90;;;;;;5057380;28;20313;-79
2023/06/09 05:37:17;;;;;;;0.15;0.15;;;20.20;99.90;;;;;;5057654;28;20020;-83
2023/06/09 05:39:43;;;;;;;0.17;0.17;;;20.30;99.90;;;;;;5039202;28;20497;-76
2023/06/09 05:42:09;;;;;;;0.10;0.10;;;20.40;99.90;;;;;;5057431;28;20036;-77
2023/06/09 05:44:36;;;;;;;0.10;0.10;;;20.20;99.90;;;;;;5057594;28;20027;-82
2023/06/09 05:47:01;;;;;;;1.00;0.95;;;20.40;99.90;;;;;;5057098;28;20107;-82
2023/06/09 05:49:27;;;;;;;0.20;0.20;;;20.20;99.90;;;;;;5039447;28;20401;-79
2023/06/09 05:51:53;;;;;;;0.10;0.10;;;19.80;99.90;;;;;;5057795;28;20116;-81
2023/06/09 05:54:19;;;;;;;1.02;0.52;;;19.80;99.90;;;;;;5057255;28;20045;-81
2023/06/09 05:56:48;;;;;;;0.30;0.30;;;19.60;99.90;;;;;;5057638;28;20056;-82
2023/06/09 05:59:14;;;;;;;0.20;0.20;;;19.60;99.90;;;;;;5057081;28;20186;-74
2023/06/09 06:01:41;;;;;;;1.55;1.48;;;19.80;99.90;;;;;;5059643;28;20029;-75
2023/06/09 06:04:08;;;;;;;0.13;0.13;;;19.90;99.90;;;;;;5058588;28;20229;-82
2023/06/09 06:06:34;;;;;;;0.10;0.10;;;19.70;99.90;;;;;;5057483;28;20588;-79
2023/06/09 06:09:00;;;;;;;0.10;0.10;;;19.40;99.90;;;;;;5057746;28;20090;-83
2023/06/09 06:11:26;;;;;;;0.52;0.52;;;20.40;99.90;;;;;;5063010;28;20025;-81
2023/06/09 06:13:51;;;;;;;0.28;0.28;;;19.00;99.90;;;;;;5064655;28;20028;-77
2023/06/09 06:16:17;;;;;;;0.20;0.20;;;19.20;99.90;;;;;;5068325;28;20031;-81
2023/06/09 06:18:43;;;;;;;0.20;0.20;;;19.00;99.90;;;;;;5071244;28;20094;-77
2023/06/09 06:21:11;;;;;;;0.10;0.10;;;19.00;99.90;;;;;;5062638;28;20075;-74
2023/06/09 06:23:36;;;;;;;0.20;0.20;;;18.90;99.90;;;;;;5060975;28;20346;-78
2023/06/09 06:26:02;;;;;;;0.10;0.10;;;18.40;99.90;;;;;;5062277;28;20092;-81
2023/06/09 06:28:28;;;;;;;3.92;3.72;;;18.30;99.90;;;;;;5062534;28;20549;-74
2023/06/09 06:30:54;;;;;;;0.20;0.20;;;17.80;99.90;;;;;;5043914;28;20032;-75
2023/06/09 06:33:20;;;;;;;0.10;0.10;;;17.70;99.90;;;;;;5060050;28;20029;-80
2023/06/09 06:35:46;;;;;;;0.10;0.10;;;17.70;99.90;;;;;;5041686;28;20248;-75
2023/06/09 06:38:11;;;;;;;0.65;0.65;;;17.80;99.90;;;;;;5059796;28;20024;-76
2023/06/09 06:40:37;;;;;;;0.20;0.20;;;17.90;99.90;;;;;;5059948;28;20052;-83
2023/06/09 06:43:03;;;;;;;0.20;0.20;;;17.60;99.90;;;;;;5059622;28;20099;-84
2023/06/09 06:45:29;;;;;;;0.10;0.10;;;17.50;99.90;;;;;;5059410;28;20029;-79
2023/06/09 06:47:55;;;;;;;1.25;1.23;;;17.50;99.90;;;;;;5059198;28;20576;-78
2023/06/09 06:50:21;;;;;;;0.30;0.30;;;17.50;99.90;;;;;;5059179;28;20021;-80
2023/06/09 06:52:50;;;;;;;0.15;0.15;;;17.40;99.90;;;;;;5040269;28;20050;-75
2023/06/09 06:55:16;;;;;;;0.73;0.73;;;17.50;99.90;;;;;;5042128;28;20045;-81
2023/06/09 06:57:42;;;;;;;0.22;0.22;;;17.40;99.90;;;;;;5040164;28;20108;-83
2023/06/09 07:00:14;;;;;;;0.10;0.10;;;17.60;99.90;;;;;;5021847;28;20021;-81
2023/06/09 07:02:41;;;;;;;0.10;0.10;;;17.60;99.90;;;;;;5039827;28;20029;-80
2023/06/09 07:05:08;;;;;;;0.10;0.10;;;17.90;99.90;;;;;;5039510;28;20025;-74
2023/06/09 07:07:34;;;;;;;0.20;0.20;;;18.30;99.90;;;;;;5039430;28;20120;-79
2023/06/09 07:10:00;;;;;;;0.20;0.20;;;18.50;99.90;;;;;;5040187;28;20100;-82
2023/06/09 07:12:26;;;;;;;0.20;0.20;;;18.50;99.90;;;;;;5039996;28;20014;-74
2023/06/09 07:14:52;;;;;;;1.85;1.75;;;18.80;99.90;;;;;;5024364;28;20024;-74
2023/06/09 07:17:18;;;;;;;0.10;0.10;;;18.80;99.90;;;;;;5040394;28;20740;-82
2023/06/09 07:19:47;;;;;;;0.20;0.20;;;19.20;99.90;;;;;;5022489;28;20082;-79
2023/06/09 07:22:12;;;;;;;0.10;0.10;;;19.10;99.90;;;;;;5042015;28;20013;-87
2023/06/09 07:24:38;;;;;;;0.20;0.20;;;19.40;99.90;;;;;;5041144;28;20857;-82
2023/06/09 07:27:05;;;;;;;0.35;0.35;;;19.10;99.90;;;;;;5041130;28;20053;-78
2023/06/09 07:29:34;;;;;;;0.10;0.10;;;19.20;99.90;;;;;;5039901;28;20032;-74
2023/06/09 07:32:00;;;;;;;0.10;0.10;;;19.10;99.90;;;;;;5022059;28;20114;-80
2023/06/09 07:34:27;;;;;;;0.55;0.55;;;18.90;99.90;;;;;;5040250;28;20060;-82
2023/06/09 07:36:53;;;;;;;0.20;0.20;;;19.10;99.90;;;;;;5040325;28;20035;-76
2023/06/09 07:39:20;;;;;;;0.20;0.20;;;19.00;99.90;;;;;;5040083;28;20032;-81
2023/06/09 07:41:46;;;;;;;0.22;0.22;;;19.00;99.90;;;;;;5039893;28;20602;-78
2023/06/09 07:44:11;;;;;;;1.10;0.82;;;19.10;99.90;;;;;;5039710;28;20076;-81
2023/06/09 07:46:37;;;;;;;0.20;0.20;;;18.90;99.90;;;;;;5039233;28;20056;-78
2023/06/09 07:49:03;;;;;;;0.10;0.10;;;19.00;99.90;;;;;;5039112;28;20091;-80
2023/06/09 07:51:29;;;;;;;0.20;0.20;;;19.20;99.90;;;;;;5005217;28;20029;-80
2023/06/09 07:53:55;;;;;;;0.10;0.10;;;19.40;99.90;;;;;;5045963;28;20048;-83
2023/06/09 07:56:21;;;;;;;0.10;0.10;;;19.70;99.90;;;;;;5059150;28;20013;-77
2023/06/09 07:58:49;;;;;;;0.65;0.65;;;19.70;99.90;;;;;;5059193;28;20020;-75
2023/06/09 08:01:15;;;;;;;4.57;1.23;;;19.80;99.90;;;;;;5058863;28;20033;-74
2023/06/09 08:03:41;;;;;;;0.20;0.20;;;19.90;99.90;;;;;;5058902;28;20104;-81
2023/06/09 08:06:08;;;;;;;0.38;0.38;;;20.00;99.90;;;;;;5058946;28;20652;-83
2023/06/09 08:08:34;;;;;;;1.05;0.98;;;19.60;99.90;;;;;;5059781;28;20029;-86
2023/06/09 08:11:00;;;;;;;0.13;0.13;;;19.80;99.90;;;;;;5058499;28;20013;-76
2023/06/09 08:13:27;;;;;;;0.20;0.20;;;19.70;99.90;;;;;;5058634;28;20044;-79
2023/06/09 08:15:53;;;;;;;0.30;0.30;;;20.40;99.90;;;;;;5059227;28;20017;-76
2023/06/09 08:18:19;;;;;;;0.75;0.75;;;19.70;99.90;;;;;;5058420;28;20027;-82
2023/06/09 08:20:45;;;;;;;2.60;1.65;;;19.70;99.90;;;;;;5059028;28;20056;-87
2023/06/09 08:23:11;;;;;;;0.95;0.95;;;19.70;99.90;;;;;;5058531;28;20697;-78
2023/06/09 08:25:37;;;;;;;0.17;0.17;;;20.20;99.90;;;;;;5058866;28;20020;-76
2023/06/09 08:28:03;;;;;;;0.10;0.10;;;20.30;99.90;;;;;;5058687;28;20036;-76
2023/06/09 08:30:29;;;;;;;0.17;0.17;;;20.50;99.90;;;;;;5058542;28;20021;-76
2023/06/09 08:32:54;;;;;;;0.30;0.30;;;20.50;99.90;;;;;;5057575;28;20663;-76
2023/06/09 08:35:21;;;;;;;0.40;0.40;;;20.70;99.90;;;;;;5058146;28;20082;-77
2023/06/09 08:37:47;;;;;;;0.13;0.13;;;20.70;99.90;;;;;;5058099;28;20020;-76
2023/06/09 08:40:13;;;;;;;2.67;2.47;;;20.90;99.90;;;;;;5057621;28;20017;-76
2023/06/09 08:42:40;;;;;;;0.40;0.40;;;20.90;99.90;;;;;;5057590;28;20025;-76
2023/06/09 08:45:07;;;;;;;0.10;0.10;;;21.60;99.90;;;;;;5057694;28;20048;-82
2023/06/09 08:47:33;;;;;;;1.23;1.13;;;20.90;99.90;;;;;;5056993;28;20025;-76
2023/06/09 08:50:02;;;;;;;0.30;0.30;;;21.20;99.90;;;;;;5057354;28;20025;-76
2023/06/09 08:52:29;;;;;;;0.10;0.10;;;21.50;99.90;;;;;;5057842;28;20012;-73
2023/06/09 08:54:59;;;;;;;0.20;0.20;;;21.50;99.90;;;;;;5057755;28;20040;-81
2023/06/09 08:57:25;;;;;;;0.20;0.20;;;21.60;99.90;;;;;;5040021;28;20020;-77
2023/06/09 08:59:52;;;;;;;0.10;0.10;;;21.40;99.90;;;;;;5058156;28;20103;-75
2023/06/09 09:02:19;;;;;;;0.10;0.10;;;21.50;99.90;;;;;;5056660;28;20356;-75
2023/06/09 09:04:45;;;;;;;1.45;1.40;;;21.80;99.90;;;;;;5056483;28;20142;-73
2023/06/09 09:07:13;;;;;;;0.52;0.52;;;22.00;99.90;;;;;;5056544;28;20035;-79
2023/06/09 09:09:40;;;;;;;0.10;0.10;;;22.10;99.90;;;;;;5056912;28;20032;-79
2023/06/09 09:12:12;;;;;;;0.10;0.10;;;22.10;99.90;;;;;;5057518;28;20028;-78
2023/06/09 09:14:42;;;;;;;1.63;1.08;;;22.20;99.90;;;;;;5057401;28;20032;-72
2023/06/09 09:17:13;;;;;;;0.20;0.20;;;22.50;99.90;;;;;;5056741;28;20217;-73
2023/06/09 09:19:45;;;;;;;0.52;0.52;;;23.00;99.90;;;;;;5056318;28;20663;-74
2023/06/09 09:22:11;;;;;;;0.10;0.10;;;23.30;99.90;;;;;;5056669;28;20338;-83
2023/06/09 09:24:41;;;;;;;0.40;0.40;;;23.60;99.90;;;;;;5056835;28;20028;-81
2023/06/09 09:27:17;;;;;;;0.40;0.30;;;23.40;99.90;;;;;;5056700;28;20017;-75
2023/06/09 09:29:46;;;;;;;0.10;0.10;;;24.00;99.90;;;;;;5050903;28;20033;-75
2023/06/09 09:32:12;;;;;;;0.38;0.38;;;24.00;99.90;;;;;;5057560;28;20027;-79
2023/06/09 09:34:41;;;;;;;0.10;0.10;;;24.00;99.90;;;;;;5057714;28;20017;-77
2023/06/09 09:37:11;;;;;;;1.27;1.27;;;24.40;99.90;;;;;;5057678;28;20013;-78
2023/06/09 09:39:48;;;;;;;0.13;0.13;;;25.40;99.90;;;;;;5057337;28;20518;-83
2023/06/09 09:42:14;;;;;;;0.10;0.10;;;24.50;99.90;;;;;;5057539;28;20012;-78
2023/06/09 09:44:41;;;;;;;0.10;0.10;;;24.60;99.90;;;;;;5042521;28;20023;-82
2023/06/09 09:47:09;;;;;;;1.33;0.35;;;24.80;99.90;;;;;;5061203;28;20012;-80
2023/06/09 09:49:35;;;;;;;0.32;0.32;;;25.00;99.90;;;;;;5061450;28;20029;-78
2023/06/09 09:52:06;;;;;;;0.40;0.40;;;26.00;99.90;;;;;;5061761;28;20020;-75
2023/06/09 09:54:36;;;;;;;0.77;0.77;;;25.00;99.90;;;;;;5061330;28;20057;-76
2023/06/09 09:57:03;;;;;;;0.10;0.10;;;24.90;99.90;;;;;;5061094;28;20021;-75
2023/06/09 09:59:30;;;;;;;0.17;0.17;;;25.10;99.90;;;;;;5042817;28;20067;-76
2023/06/09 10:01:56;;;;;;;0.52;0.50;;;25.30;99.90;;;;;;5061635;28;20021;-75
2023/06/09 10:04:24;;;;;;;0.43;0.43;;;23.50;99.90;;;;;;5043595;28;20078;-76
2023/06/09 10:07:01;;;;;;;0.52;0.52;;;25.40;99.90;;;;;;5043317;28;20128;-75
2023/06/09 10:09:28;;;;;;;0.22;0.22;;;25.60;99.90;;;;;;5061323;28;20032;-75
2023/06/09 10:11:55;;;;;;;0.10;0.10;;;25.40;99.90;;;;;;5061728;28;20040;-76
2023/06/09 10:14:21;;;;;;;0.63;0.63;;;25.30;99.90;;;;;;5061359;28;20226;-78
2023/06/09 10:16:51;;;;;;;0.10;0.10;;;25.40;99.90;;;;;;5043384;28;20025;-75
2023/06/09 10:19:18;;;;;;;0.10;0.10;;;25.40;99.90;;;;;;5043454;28;20017;-79
2023/06/09 10:21:47;;;;;;;0.32;0.32;;;25.70;99.50;;;;;;5062603;28;20012;-74
2023/06/09 10:24:13;;;;;;;0.10;0.10;;;25.60;99.90;;;;;;5063263;28;20052;-78
2023/06/09 10:26:40;;;;;;;0.10;0.10;;;25.70;99.90;;;;;;5063705;28;20074;-75
2023/06/09 10:29:09;;;;;;;0.10;0.10;;;25.80;99.90;;;;;;5063641;28;20133;-80
2023/06/09 10:31:41;;;;;;;0.25;0.25;;;25.70;99.90;;;;;;5063484;28;20017;-79
2023/06/09 10:34:09;;;;;;;0.25;0.25;;;25.80;99.90;;;;;;5064179;28;20028;-78
2023/06/09 10:36:37;;;;;;;0.15;0.13;;;25.70;99.90;;;;;;5063188;28;20646;-77
2023/06/09 10:39:22;;;;;;;0.10;0.10;;;25.80;99.90;;;;;;5061728;28;20020;-74
2023/06/09 10:42:15;;;;;;;1.95;0.82;;;26.00;99.90;;;;;;5061633;28;20493;-79
2023/06/09 10:45:14;;;;;;;0.10;0.10;;;26.10;99.90;;;;;;5061621;28;20017;-82
2023/06/09 10:47:48;;;;;;;0.30;0.30;;;26.00;99.90;;;;;;5060181;28;20028;-81
2023/06/09 10:50:24;;;;;;;0.10;0.10;;;26.50;99.90;;;;;;5060568;28;20031;-80
2023/06/09 10:52:55;;;;;;;1.17;0.80;;;26.60;99.80;;;;;;5042294;28;20028;-77
2023/06/09 10:55:22;;;;;;;0.28;0.28;;;26.70;98.60;;;;;;5059225;28;20044;-74
2023/06/09 10:57:50;;;;;;;1.65;0.55;;;27.10;97.90;;;;;;5060032;28;20021;-84
2023/06/09 11:00:16;;;;;;;6.03;2.10;;;27.30;97.10;;;;;;5059760;28;20028;-82
2023/06/09 11:03:12;;;;;;;0.17;0.17;;;27.30;96.80;;;;;;5059729;28;20103;-80
2023/06/09 11:05:43;;;;;;;0.93;0.68;;;27.50;96.40;;;;;;5058956;28;20044;-83
2023/06/09 11:08:08;;;;;;;0.10;0.10;;;27.60;95.40;;;;;;5059298;28;20809;-74
2023/06/09 11:10:36;;;;;;;0.00;0.00;;;27.80;93.10;;;;;;5060864;28;20096;-82
2023/06/09 11:13:22;;;;;;;0.30;0.28;;;28.00;91.00;;;;;;5061730;28;20296;-80
2023/06/09 11:16:03;;;;;;;2.67;0.88;;;28.10;88.00;;;;;;5062049;28;20579;-76
2023/06/09 11:18:29;;;;;;;0.20;0.20;;;28.30;91.80;;;;;;5060682;28;20323;-74
2023/06/09 11:21:28;;;;;;;0.25;0.25;;;28.50;81.00;;;;;;5042026;28;20035;-80
2023/06/09 11:24:01;;;;;;;0.55;0.55;;;29.10;78.50;;;;;;4958302;28;20042;-79
2023/06/09 11:26:28;;;;;;;0.10;0.10;;;29.40;77.60;;;;;;4958006;28;20067;-75
2023/06/09 11:28:54;;;;;;;0.10;0.10;;;30.10;77.10;;;;;;4957161;28;20201;-81
2023/06/09 11:31:20;;;;;;;0.10;0.10;;;30.40;72.90;;;;;;4957439;28;20568;-74
2023/06/09 11:33:53;;;;;;;0.40;0.35;;;30.40;72.00;;;;;;4940603;28;20789;-75
2023/06/09 11:36:25;;;;;;;0.20;0.20;;;30.50;69.60;;;;;;4956889;28;20066;-74
2023/06/09 11:38:51;;;;;;;0.35;0.13;;;30.70;69.40;;;;;;4958712;28;20042;-75
2023/06/09 11:41:21;;;;;;;0.17;0.17;;;31.10;69.00;;;;;;4958174;28;20671;-74
2023/06/09 11:43:55;;;;;;;0.10;0.10;;;31.70;66.90;;;;;;4957974;28;20248;-81
2023/06/09 11:46:22;;;;;;;0.10;0.10;;;31.70;65.30;;;;;;4957733;28;20177;-77
2023/06/09 11:49:03;;;;;;;0.10;0.10;;;31.50;63.60;;;;;;4957711;28;20226;-84
2023/06/09 11:51:50;;;;;;;0.10;0.10;;;31.70;64.90;;;;;;4958018;28;20093;-75
2023/06/09 11:54:17;;;;;;;0.20;0.20;;;31.50;63.50;;;;;;4957178;28;20648;-76
2023/06/09 11:56:45;;;;;;;0.30;0.30;;;31.20;63.80;;;;;;4957679;28;20250;-75
2023/06/09 11:59:11;;;;;;;0.13;0.13;;;31.00;64.10;;;;;;4986872;28;20050;-76
2023/06/09 12:01:40;;;;;;;0.20;0.20;;;32.10;64.80;;;;;;5058567;28;20028;-79
2023/06/09 12:04:06;;;;;;;0.30;0.30;;;31.40;64.40;;;;;;5058988;28;20268;-78
2023/06/09 12:06:36;;;;;;;0.40;0.40;;;31.90;63.40;;;;;;5032168;28;20028;-80
2023/06/09 12:09:22;;;;;;;1.67;0.63;;;31.90;63.10;;;;;;5057925;28;20028;-74
2023/06/09 12:11:53;;;;;;;0.20;0.20;;;32.80;62.80;;;;;;5058417;28;20037;-74
2023/06/09 12:14:20;;;;;;;0.75;0.75;;;33.10;61.60;;;;;;5040274;28;20025;-83
2023/06/09 12:16:45;;;;;;;0.20;0.20;;;33.30;62.00;;;;;;5058689;28;20701;-75
2023/06/09 12:19:11;;;;;;;0.10;0.10;;;33.30;60.80;;;;;;5058444;28;20017;-82
2023/06/09 12:21:37;;;;;;;0.22;0.22;;;33.70;61.50;;;;;;5058801;28;20020;-82
2023/06/09 12:24:04;;;;;;;0.20;0.20;;;34.60;60.30;;;;;;5059041;28;20647;-78
2023/06/09 12:26:40;;;;;;;0.10;0.10;;;35.30;58.50;;;;;;5058232;28;20612;-82
2023/06/09 12:29:06;;;;;;;0.20;0.20;;;36.00;57.30;;;;;;5058385;28;20093;-82
2023/06/09 12:31:32;;;;;;;1.23;0.45;;;36.60;57.20;;;;;;5041067;28;20690;-81
2023/06/09 12:34:01;;;;;;;1.10;0.30;;;36.40;56.60;;;;;;5059330;28;20475;-81
2023/06/09 12:36:27;;;;;;;0.30;0.28;;;37.20;55.20;;;;;;5058473;28;20704;-83
2023/06/09 12:38:53;;;;;;;1.13;1.02;;;37.80;55.90;;;;;;5058843;28;20089;-80
2023/06/09 12:41:20;;;;;;;0.10;0.10;;;37.20;55.00;;;;;;5057863;28;20016;-84
2023/06/09 12:43:56;;;;;;;0.13;0.13;;;37.00;55.10;;;;;;5058463;28;20047;-78
2023/06/09 12:46:28;;;;;;;0.10;0.10;;;36.80;56.00;;;;;;5040635;28;20021;-81
2023/06/09 12:49:12;;;;;;;0.30;0.20;;;37.10;54.90;;;;;;5058096;28;20024;-79
2023/06/09 12:51:40;;;;;;;1.05;0.47;;;37.30;54.10;;;;;;5040710;28;20016;-81
2023/06/09 12:54:12;;;;;;;0.15;0.15;;;37.30;53.70;;;;;;5059324;28;20041;-76